createdAt,value
2019-03-18T00:00:28.884Z,99357.49
2019-03-18T00:02:58.315Z,99364.48
2019-03-18T00:05:27.749Z,99367.98
2019-03-18T00:07:57.113Z,99358.22
2019-03-18T00:10:26.554Z,99359.23
2019-03-18T00:12:56.250Z,99363.47
2019-03-18T00:15:25.693Z,99363.17
2019-03-18T00:17:55.055Z,99362.55
2019-03-18T00:20:24.764Z,99366.28
2019-03-18T00:22:54.119Z,99368.80
2019-03-18T00:25:23.738Z,99377.45
2019-03-18T00:27:53.092Z,99375.59
2019-03-18T00:30:22.530Z,99381.80
2019-03-18T00:32:51.895Z,99386.67
2019-03-18T00:35:21.263Z,99391.43
2019-03-18T00:37:50.616Z,99387.84
2019-03-18T00:40:21.233Z,99394.14
2019-03-18T00:42:50.597Z,99397.91
2019-03-18T00:45:19.967Z,99399.80
2019-03-18T00:47:49.383Z,99390.66
2019-03-18T00:50:19.009Z,99392.19
2019-03-18T00:52:48.533Z,99396.50
2019-03-18T00:55:18.225Z,99397.72
2019-03-18T00:57:47.584Z,99399.98
2019-03-18T01:00:18.562Z,99408.52
2019-03-18T01:02:49.638Z,99406.52
2019-03-18T01:05:19.552Z,99405.11
2019-03-18T01:07:48.877Z,99408.42
2019-03-18T01:10:18.881Z,99411.75
2019-03-18T01:12:48.323Z,99408.42
2019-03-18T01:15:27.525Z,99404.52
2019-03-18T01:17:48.782Z,99410.66
2019-03-18T01:20:18.203Z,99413.47
2019-03-18T01:22:47.569Z,99410.46
2019-03-18T01:25:16.928Z,99416.83
2019-03-18T01:27:46.303Z,99412.09
2019-03-18T01:30:16.682Z,99422.38
2019-03-18T01:32:46.692Z,99425.44
2019-03-18T01:35:16.695Z,99429.60
2019-03-18T01:37:46.823Z,99435.34
2019-03-18T01:40:16.983Z,99428.69
2019-03-18T01:42:46.348Z,99436.37
2019-03-18T01:45:15.724Z,99437.70
2019-03-18T01:47:45.076Z,99426.55
2019-03-18T01:50:15.743Z,99427.48
2019-03-18T01:52:45.190Z,99427.52
2019-03-18T01:55:14.618Z,99419.61
2019-03-18T01:57:43.985Z,99428.66
2019-03-18T02:00:15.153Z,99432.97
2019-03-18T02:02:44.522Z,99431.42
2019-03-18T02:05:13.900Z,99430.03
2019-03-18T02:07:43.247Z,99432.56
2019-03-18T02:10:17.993Z,99435.61
2019-03-18T02:12:47.352Z,99439.61
2019-03-18T02:15:16.986Z,99443.50
2019-03-18T02:17:46.350Z,99443.58
2019-03-18T02:20:19.960Z,99442.43
2019-03-18T02:22:49.601Z,99432.58
2019-03-18T02:25:18.953Z,99436.70
2019-03-18T02:27:48.317Z,99447.35
2019-03-18T02:30:20.692Z,99447.43
2019-03-18T02:32:50.062Z,99449.36
2019-03-18T02:35:19.427Z,99440.27
2019-03-18T02:37:49.100Z,99440.27
2019-03-18T02:40:18.454Z,99439.98
2019-03-18T02:42:47.829Z,99427.69
2019-03-18T02:45:19.075Z,99439.61
2019-03-18T02:47:48.456Z,99446.66
2019-03-18T02:50:17.791Z,99442.09
2019-03-18T02:52:47.463Z,99445.88
2019-03-18T02:55:16.810Z,99456.80
2019-03-18T02:57:46.189Z,99458.20
2019-03-18T03:00:16.194Z,99467.14
2019-03-18T03:02:45.635Z,99461.43
2019-03-18T03:05:15.203Z,99464.59
2019-03-18T03:07:44.604Z,99467.30
2019-03-18T03:10:15.244Z,99458.22
2019-03-18T03:12:44.605Z,99449.58
2019-03-18T03:15:15.016Z,99454.73
2019-03-18T03:17:44.593Z,99464.00
2019-03-18T03:20:14.146Z,99470.81
2019-03-18T03:22:43.526Z,99469.53
2019-03-18T03:25:13.389Z,99462.28
2019-03-18T03:27:42.797Z,99466.41
2019-03-18T03:30:16.128Z,99457.77
2019-03-18T03:32:45.600Z,99468.89
2019-03-18T03:35:15.112Z,99474.73
2019-03-18T03:37:44.458Z,99472.20
2019-03-18T03:40:14.134Z,99466.31
2019-03-18T03:42:43.559Z,99475.60
2019-03-18T03:45:15.958Z,99480.27
2019-03-18T03:47:45.306Z,99484.48
2019-03-18T03:50:15.848Z,99493.20
2019-03-18T03:52:45.214Z,99487.12
2019-03-18T03:55:15.423Z,99494.70
2019-03-18T03:57:45.272Z,99501.00
2019-03-18T04:00:16.367Z,99498.36
2019-03-18T04:02:46.142Z,99497.66
2019-03-18T04:05:16.239Z,99498.83
2019-03-18T04:07:46.575Z,99500.11
2019-03-18T04:10:16.553Z,99507.72
2019-03-18T04:12:46.293Z,99515.22
2019-03-18T04:15:16.485Z,99518.55
2019-03-18T04:17:45.853Z,99519.80
2019-03-18T04:20:16.734Z,99522.11
2019-03-18T04:22:46.158Z,99525.38
2019-03-18T04:25:15.534Z,99528.81
2019-03-18T04:27:44.892Z,99525.45
2019-03-18T04:30:15.663Z,99531.08
2019-03-18T04:32:45.038Z,99543.89
2019-03-18T04:35:14.401Z,99545.33
2019-03-18T04:37:43.800Z,99548.20
2019-03-18T04:40:13.197Z,99552.42
2019-03-18T04:42:42.564Z,99549.70
2019-03-18T04:45:12.787Z,99553.22
2019-03-18T04:47:42.477Z,99563.23
2019-03-18T04:50:13.364Z,99570.05
2019-03-18T04:52:42.710Z,99567.69
2019-03-18T04:55:12.419Z,99569.88
2019-03-18T04:57:41.794Z,99576.82
2019-03-18T05:00:14.045Z,99579.22
2019-03-18T05:02:43.416Z,99584.12
2019-03-18T05:05:12.988Z,99594.81
2019-03-18T05:07:42.348Z,99579.64
2019-03-18T05:10:12.340Z,99586.11
2019-03-18T05:12:41.740Z,99597.87
2019-03-18T05:15:11.758Z,99596.55
2019-03-18T05:17:41.126Z,99594.77
2019-03-18T05:20:13.422Z,99615.02
2019-03-18T05:22:42.787Z,99625.13
2019-03-18T05:25:12.216Z,99622.34
2019-03-18T05:27:41.580Z,99619.36
2019-03-18T05:30:14.985Z,99633.79
2019-03-18T05:32:44.369Z,99639.58
2019-03-18T05:35:13.791Z,99623.84
2019-03-18T05:37:43.161Z,99640.86
2019-03-18T05:40:12.572Z,99643.83
2019-03-18T05:42:41.966Z,99650.30
2019-03-18T05:45:13.380Z,99649.09
2019-03-18T05:47:42.759Z,99649.09
2019-03-18T05:50:12.656Z,99662.94
2019-03-18T05:52:42.026Z,99664.22
2019-03-18T05:55:11.534Z,99668.00
2019-03-18T05:57:40.889Z,99675.21
2019-03-18T06:00:16.142Z,99673.32
2019-03-18T06:02:46.989Z,99669.30
2019-03-18T06:05:16.643Z,99679.96
2019-03-18T06:07:46.263Z,99688.45
2019-03-18T06:10:15.974Z,99694.27
2019-03-18T06:12:45.336Z,99688.67
2019-03-18T06:15:15.087Z,99692.31
2019-03-18T06:17:52.310Z,99693.42
2019-03-18T06:20:15.887Z,99706.94
2019-03-18T06:22:45.245Z,99708.09
2019-03-18T06:25:14.633Z,99722.71
2019-03-18T06:27:43.967Z,99723.90
2019-03-18T06:30:15.825Z,99715.89
2019-03-18T06:32:45.252Z,99728.92
2019-03-18T06:35:14.690Z,99721.04
2019-03-18T06:37:44.050Z,99719.45
2019-03-18T06:40:14.843Z,99732.39
2019-03-18T06:42:44.213Z,99729.70
2019-03-18T06:45:14.312Z,99738.90
2019-03-18T06:47:43.699Z,99740.91
2019-03-18T06:50:13.959Z,99742.08
2019-03-18T06:52:43.323Z,99746.50
2019-03-18T06:55:12.767Z,99753.34
2019-03-18T06:57:42.137Z,99752.11
2019-03-18T07:00:15.298Z,99751.16
2019-03-18T07:02:44.729Z,99753.49
2019-03-18T07:05:14.371Z,99768.00
2019-03-18T07:07:43.750Z,99767.56
2019-03-18T07:10:14.368Z,99764.69
2019-03-18T07:12:43.732Z,99763.66
2019-03-18T07:15:13.712Z,99772.47
2019-03-18T07:17:43.078Z,99773.66
2019-03-18T07:20:14.163Z,99782.14
2019-03-18T07:22:43.762Z,99789.45
2019-03-18T07:25:13.309Z,99788.55
2019-03-18T07:27:42.672Z,99794.90
2019-03-18T07:30:15.009Z,99796.39
2019-03-18T07:32:44.369Z,99790.81
2019-03-18T07:35:13.818Z,99787.05
2019-03-18T07:37:43.429Z,99803.37
2019-03-18T07:40:15.487Z,99812.03
2019-03-18T07:42:44.851Z,99816.17
2019-03-18T07:45:16.535Z,99817.85
2019-03-18T07:47:45.959Z,99811.69
2019-03-18T07:50:16.440Z,99813.91
2019-03-18T07:52:45.803Z,99813.74
2019-03-18T07:55:15.203Z,99812.77
2019-03-18T07:57:44.577Z,99809.94
2019-03-18T08:00:15.564Z,99812.98
2019-03-18T08:02:44.937Z,99808.31
2019-03-18T08:05:14.482Z,99816.73
2019-03-18T08:07:43.859Z,99820.13
2019-03-18T08:10:14.713Z,99825.25
2019-03-18T08:12:44.094Z,99824.48
2019-03-18T08:15:14.107Z,99825.30
2019-03-18T08:17:44.005Z,99827.88
2019-03-18T08:20:14.015Z,99834.72
2019-03-18T08:22:43.385Z,99834.70
2019-03-18T08:25:12.824Z,99839.65
2019-03-18T08:27:42.418Z,99843.09
2019-03-18T08:30:19.482Z,99851.39
2019-03-18T08:32:48.876Z,99860.97
2019-03-18T08:35:18.947Z,99866.05
2019-03-18T08:37:48.322Z,99868.28
2019-03-18T08:40:17.706Z,99878.29
2019-03-18T08:42:47.079Z,99886.30
2019-03-18T08:45:17.256Z,99883.23
2019-03-18T08:47:46.623Z,99879.08
2019-03-18T08:50:16.000Z,99883.16
2019-03-18T08:52:45.379Z,99880.59
2019-03-18T08:55:14.753Z,99884.97
2019-03-18T08:57:44.387Z,99891.58
2019-03-18T09:00:15.789Z,99891.41
2019-03-18T09:02:45.198Z,99896.02
2019-03-18T09:05:14.693Z,99902.67
2019-03-18T09:07:44.194Z,99904.59
2019-03-18T09:10:17.669Z,99902.44
2019-03-18T09:12:47.046Z,99902.19
2019-03-18T09:15:16.418Z,99901.02
2019-03-18T09:17:46.667Z,99901.76
2019-03-18T09:20:18.409Z,99910.55
2019-03-18T09:22:47.847Z,99911.98
2019-03-18T09:25:17.209Z,99910.59
2019-03-18T09:27:46.588Z,99911.80
2019-03-18T09:30:20.518Z,99917.31
2019-03-18T09:32:49.968Z,99925.98
2019-03-18T09:35:19.331Z,99928.20
2019-03-18T09:37:48.870Z,99931.72
2019-03-18T09:40:18.728Z,99931.78
2019-03-18T09:42:48.386Z,99929.31
2019-03-18T09:45:19.855Z,99931.87
2019-03-18T09:47:49.228Z,99923.83
2019-03-18T09:50:18.732Z,99925.94
2019-03-18T09:52:48.121Z,99933.52
2019-03-18T09:55:17.486Z,99932.91
2019-03-18T09:57:46.861Z,99934.58
2019-03-18T10:00:20.359Z,99933.70
2019-03-18T10:02:50.064Z,99937.97
2019-03-18T10:05:19.429Z,99939.42
2019-03-18T10:07:49.063Z,99937.13
2019-03-18T10:10:18.775Z,99939.69
2019-03-18T10:12:48.150Z,99940.97
2019-03-18T10:15:21.716Z,99948.53
2019-03-18T10:17:51.077Z,99940.68
2019-03-18T10:20:20.516Z,99947.55
2019-03-18T10:22:49.898Z,99946.72
2019-03-18T10:25:20.400Z,99957.23
2019-03-18T10:27:49.775Z,99961.80
2019-03-18T10:30:19.142Z,99966.22
2019-03-18T10:32:48.524Z,99959.14
2019-03-18T10:35:17.911Z,99973.88
2019-03-18T10:37:47.271Z,99969.89
2019-03-18T10:40:16.667Z,99975.80
2019-03-18T10:42:46.042Z,99983.43
2019-03-18T10:45:15.781Z,99985.97
2019-03-18T10:47:45.154Z,99991.20
2019-03-18T10:50:16.782Z,99986.11
2019-03-18T10:52:46.215Z,99990.45
2019-03-18T10:55:15.589Z,99990.62
2019-03-18T10:57:44.953Z,99992.87
2019-03-18T11:00:18.683Z,100010.91
2019-03-18T11:02:48.052Z,100016.94
2019-03-18T11:05:17.521Z,100019.47
2019-03-18T11:07:46.900Z,100014.41
2019-03-18T11:10:17.248Z,100026.84
2019-03-18T11:12:46.799Z,100044.25
2019-03-18T11:15:18.596Z,100045.38
2019-03-18T11:17:47.982Z,100043.27
2019-03-18T11:20:17.892Z,100038.64
2019-03-18T11:22:47.262Z,100038.58
2019-03-18T11:25:17.781Z,100039.35
2019-03-18T11:27:47.145Z,100042.53
2019-03-18T11:30:19.375Z,100044.53
2019-03-18T11:32:48.737Z,100048.50
2019-03-18T11:35:18.126Z,100046.75
2019-03-18T11:37:47.571Z,100054.59
2019-03-18T11:40:23.022Z,100062.28
2019-03-18T11:42:52.473Z,100069.66
2019-03-18T11:45:27.588Z,100068.53
2019-03-18T11:47:56.955Z,100059.47
2019-03-18T11:50:26.417Z,100061.91
2019-03-18T11:52:55.790Z,100047.23
2019-03-18T11:55:28.690Z,100054.80
2019-03-18T11:57:58.059Z,100041.95
2019-03-18T12:00:27.823Z,100040.78
2019-03-18T12:02:57.189Z,100040.18
2019-03-18T12:05:30.043Z,100033.29
2019-03-18T12:07:59.418Z,100029.34
2019-03-18T12:10:29.578Z,100031.94
2019-03-18T12:12:58.960Z,100031.33
2019-03-18T12:15:31.097Z,100025.29
2019-03-18T12:18:00.672Z,100028.07
2019-03-18T12:20:32.957Z,100027.39
2019-03-18T12:23:01.231Z,100024.77
2019-03-18T12:25:33.549Z,100033.07
2019-03-18T12:28:04.839Z,100025.14
2019-03-18T12:30:32.827Z,100024.70
2019-03-18T12:33:02.195Z,100023.36
2019-03-18T12:35:31.899Z,100038.84
2019-03-18T12:38:01.332Z,100031.31
2019-03-18T12:40:30.784Z,100039.14
2019-03-18T12:43:00.161Z,100041.45
2019-03-18T12:45:30.151Z,100031.69
2019-03-18T12:47:59.597Z,100039.52
2019-03-18T12:50:49.345Z,100037.84
2019-03-18T12:53:00.494Z,100042.77
2019-03-18T12:55:30.205Z,100048.30
2019-03-18T12:57:59.578Z,100043.20
2019-03-18T13:00:36.957Z,100042.07
2019-03-18T13:03:06.804Z,100037.66
2019-03-18T13:05:36.182Z,100047.89
2019-03-18T13:08:05.862Z,100038.55
2019-03-18T13:10:35.327Z,100039.72
2019-03-18T13:13:04.857Z,100046.25
2019-03-18T13:15:34.258Z,100045.53
2019-03-18T13:18:03.721Z,100047.81
2019-03-18T13:20:33.199Z,100052.41
2019-03-18T13:23:02.579Z,100047.05
2019-03-18T13:25:31.958Z,100050.81
2019-03-18T13:28:01.622Z,100054.06
2019-03-18T13:30:30.986Z,100063.42
2019-03-18T13:33:00.425Z,100077.83
2019-03-18T13:35:29.799Z,100076.69
2019-03-18T13:38:00.551Z,100079.70
2019-03-18T13:40:30.356Z,100078.48
2019-03-18T13:43:00.746Z,100084.87
2019-03-18T13:45:34.008Z,100085.10
2019-03-18T13:48:03.473Z,100077.91
2019-03-18T13:50:52.177Z,100065.53
2019-03-18T13:53:21.636Z,100065.11
2019-03-18T13:55:51.012Z,100063.09
2019-03-18T13:58:20.394Z,100069.04
2019-03-18T14:00:49.765Z,100060.63
2019-03-18T14:03:19.144Z,100057.63
2019-03-18T14:05:48.520Z,100059.89
2019-03-18T14:08:17.899Z,100058.06
2019-03-18T14:10:47.270Z,100054.94
2019-03-18T14:13:17.084Z,100063.24
2019-03-18T14:15:46.452Z,100057.78
2019-03-18T14:18:15.836Z,100059.73
2019-03-18T14:20:45.201Z,100058.63
2019-03-18T14:23:14.577Z,100061.41
2019-03-18T14:25:45.506Z,100064.34
2019-03-18T14:28:15.108Z,100067.83
2019-03-18T14:30:44.472Z,100063.30
2019-03-18T14:33:13.858Z,100060.33
2019-03-18T14:35:43.630Z,100060.47
2019-03-18T14:38:13.010Z,100064.59
2019-03-18T14:40:42.378Z,100069.34
2019-03-18T14:43:11.762Z,100065.98
2019-03-18T14:45:41.140Z,100067.03
2019-03-18T14:48:10.526Z,100067.03
2019-03-18T14:50:41.034Z,100067.39
2019-03-18T14:53:11.096Z,100071.84
2019-03-18T14:55:40.479Z,100074.23
2019-03-18T14:58:09.847Z,100074.45
2019-03-18T15:00:39.212Z,100082.06
2019-03-18T15:03:08.603Z,100075.94
2019-03-18T15:05:37.964Z,100075.00
2019-03-18T15:08:07.343Z,100079.99
2019-03-18T15:10:36.718Z,100076.97
2019-03-18T15:13:06.096Z,100072.02
2019-03-18T15:15:35.471Z,100074.09
2019-03-18T15:18:05.125Z,100072.70
2019-03-18T15:20:34.809Z,100078.81
2019-03-18T15:23:04.195Z,100078.31
2019-03-18T15:25:36.113Z,100083.39
2019-03-18T15:28:05.995Z,100095.18
2019-03-18T15:30:35.366Z,100100.59
2019-03-18T15:33:05.095Z,100104.25
2019-03-18T15:35:34.472Z,100109.16
2019-03-18T15:38:03.847Z,100107.59
2019-03-18T15:40:33.237Z,100109.71
2019-03-18T15:43:02.593Z,100110.45
2019-03-18T15:45:35.694Z,100117.52
2019-03-18T15:48:05.143Z,100116.27
2019-03-18T15:50:34.807Z,100111.87
2019-03-18T15:53:04.172Z,100108.69
2019-03-18T15:55:33.550Z,100112.13
2019-03-18T15:58:02.921Z,100114.11
2019-03-18T16:00:33.640Z,100112.36
2019-03-18T16:03:03.011Z,100109.75
2019-03-18T16:05:32.398Z,100115.98
2019-03-18T16:08:01.778Z,100120.23
2019-03-18T16:10:31.158Z,100120.11
2019-03-18T16:13:00.531Z,100124.17
2019-03-18T16:15:29.906Z,100127.87
2019-03-18T16:17:59.356Z,100126.55
2019-03-18T16:20:28.908Z,100126.20
2019-03-18T16:22:58.292Z,100130.47
2019-03-18T16:25:27.655Z,100128.47
2019-03-18T16:27:57.032Z,100139.31
2019-03-18T16:30:26.494Z,100145.63
2019-03-18T16:32:55.873Z,100149.42
2019-03-18T16:35:25.278Z,100155.81
2019-03-18T16:37:54.646Z,100157.02
2019-03-18T16:40:25.300Z,100162.86
2019-03-18T16:42:55.000Z,100162.31
2019-03-18T16:45:24.637Z,100165.30
2019-03-18T16:47:54.012Z,100158.49
2019-03-18T16:50:30.114Z,100167.70
2019-03-18T16:52:59.775Z,100174.39
2019-03-18T16:55:29.159Z,100177.84
2019-03-18T16:57:58.527Z,100181.18
2019-03-18T17:00:28.662Z,100183.00
2019-03-18T17:02:58.031Z,100179.52
2019-03-18T17:05:27.420Z,100184.67
2019-03-18T17:07:56.821Z,100183.88
2019-03-18T17:10:26.511Z,100191.83
2019-03-18T17:12:55.881Z,100197.25
2019-03-18T17:15:25.260Z,100205.72
2019-03-18T17:17:54.631Z,100209.80
2019-03-18T17:20:24.079Z,100211.92
2019-03-18T17:22:53.442Z,100217.17
2019-03-18T17:25:28.327Z,100217.59
2019-03-18T17:27:57.950Z,100215.12
2019-03-18T17:30:27.311Z,100221.20
2019-03-18T17:32:56.701Z,100230.09
2019-03-18T17:35:26.048Z,100234.30
2019-03-18T17:37:55.425Z,100238.79
2019-03-18T17:40:24.832Z,100242.89
2019-03-18T17:42:54.204Z,100248.33
2019-03-18T17:45:23.574Z,100245.41
2019-03-18T17:47:52.949Z,100253.70
2019-03-18T17:50:28.239Z,100253.66
2019-03-18T17:53:03.213Z,100254.45
2019-03-18T17:55:28.716Z,100259.09
2019-03-18T17:57:58.170Z,100262.92
2019-03-18T18:00:37.826Z,100265.68
2019-03-18T18:03:07.200Z,100271.59
2019-03-18T18:05:36.574Z,100274.26
2019-03-18T18:08:05.944Z,100286.70
2019-03-18T18:10:35.310Z,100289.05
2019-03-18T18:13:04.764Z,100291.36
2019-03-18T18:15:34.127Z,100299.65
2019-03-18T18:18:03.509Z,100300.30
2019-03-18T18:20:32.886Z,100310.63
2019-03-18T18:23:13.574Z,100310.45
2019-03-18T18:25:33.416Z,100312.23
2019-03-18T18:28:02.775Z,100313.52
2019-03-18T18:30:32.145Z,100326.62
2019-03-18T18:33:01.766Z,100327.03
2019-03-18T18:35:31.146Z,100337.00
2019-03-18T18:38:00.522Z,100339.19
2019-03-18T18:40:30.649Z,100330.69
2019-03-18T18:43:00.024Z,100335.84
2019-03-18T18:45:31.269Z,100335.36
2019-03-18T18:48:00.661Z,100343.31
2019-03-18T18:50:30.038Z,100342.83
2019-03-18T18:52:59.413Z,100349.91
2019-03-18T18:55:28.777Z,100347.92
2019-03-18T18:57:58.624Z,100349.02
2019-03-18T19:00:27.988Z,100354.66
2019-03-18T19:02:57.387Z,100355.42
2019-03-18T19:05:27.015Z,100365.09
2019-03-18T19:07:57.679Z,100366.52
2019-03-18T19:10:27.241Z,100374.64
2019-03-18T19:12:56.622Z,100377.84
2019-03-18T19:15:29.925Z,100372.25
2019-03-18T19:17:59.298Z,100374.04
2019-03-18T19:20:28.678Z,100381.52
2019-03-18T19:22:58.324Z,100379.07
2019-03-18T19:25:27.690Z,100386.31
2019-03-18T19:27:57.064Z,100382.98
2019-03-18T19:30:26.418Z,100394.58
2019-03-18T19:32:55.799Z,100392.36
2019-03-18T19:35:25.160Z,100401.78
2019-03-18T19:37:54.556Z,100404.97
2019-03-18T19:40:25.140Z,100406.30
2019-03-18T19:42:54.510Z,100408.73
2019-03-18T19:45:23.880Z,100413.27
2019-03-18T19:47:53.660Z,100416.08
2019-03-18T19:50:32.370Z,100415.55
2019-03-18T19:53:01.837Z,100411.22
2019-03-18T19:55:31.479Z,100413.28
2019-03-18T19:58:01.079Z,100423.45
2019-03-18T20:00:31.403Z,100424.73
2019-03-18T20:03:00.829Z,100428.92
2019-03-18T20:05:30.208Z,100430.23
2019-03-18T20:07:59.566Z,100433.92
2019-03-18T20:10:29.008Z,100438.70
2019-03-18T20:12:58.439Z,100441.92
2019-03-18T20:15:27.819Z,100445.27
2019-03-18T20:17:57.203Z,100447.48
2019-03-18T20:20:26.591Z,100449.02
2019-03-18T20:22:55.932Z,100451.88
2019-03-18T20:25:25.312Z,100455.47
2019-03-18T20:27:54.680Z,100448.45
2019-03-18T20:30:24.145Z,100458.11
2019-03-18T20:32:54.667Z,100461.77
2019-03-18T20:35:25.060Z,100463.86
2019-03-18T20:37:54.411Z,100460.72
2019-03-18T20:40:23.848Z,100466.33
2019-03-18T20:42:53.217Z,100475.48
2019-03-18T20:45:24.506Z,100478.31
2019-03-18T20:47:53.874Z,100478.52
2019-03-18T20:50:24.558Z,100478.88
2019-03-18T20:52:53.919Z,100481.23
2019-03-18T20:55:23.362Z,100483.03
2019-03-18T20:57:52.723Z,100481.53
2019-03-18T21:00:24.372Z,100479.61
2019-03-18T21:02:53.915Z,100481.16
2019-03-18T21:05:25.203Z,100489.64
2019-03-18T21:07:54.934Z,100495.51
2019-03-18T21:10:24.536Z,100500.31
2019-03-18T21:12:53.906Z,100505.39
2019-03-18T21:15:23.290Z,100506.70
2019-03-18T21:17:52.667Z,100510.69
2019-03-18T21:20:28.251Z,100517.47
2019-03-18T21:22:57.992Z,100519.30
2019-03-18T21:25:27.370Z,100529.63
2019-03-18T21:27:57.033Z,100533.61
2019-03-18T21:30:26.511Z,100532.23
2019-03-18T21:32:55.968Z,100539.55
2019-03-18T21:35:25.343Z,100537.05
2019-03-18T21:37:54.706Z,100539.77
2019-03-18T21:40:24.082Z,100543.80
2019-03-18T21:42:53.451Z,100546.69
2019-03-18T21:45:25.969Z,100546.93
2019-03-18T21:47:55.337Z,100546.48
2019-03-18T21:50:24.712Z,100550.91
2019-03-18T21:52:54.065Z,100551.81
2019-03-18T21:55:23.437Z,100548.19
2019-03-18T21:57:52.872Z,100549.69
2019-03-18T22:00:23.466Z,100554.47
2019-03-18T22:02:52.839Z,100562.14
2019-03-18T22:05:22.232Z,100562.47
2019-03-18T22:07:51.583Z,100568.44
2019-03-18T22:10:21.903Z,100570.59
2019-03-18T22:12:51.261Z,100567.26
2019-03-18T22:15:20.628Z,100568.31
2019-03-18T22:17:50.871Z,100569.80
2019-03-18T22:20:23.695Z,100573.25
2019-03-18T22:22:53.082Z,100576.34
2019-03-18T22:25:22.438Z,100581.67
2019-03-18T22:27:51.812Z,100585.87
2019-03-18T22:30:21.385Z,100586.77
2019-03-18T22:32:50.767Z,100585.91
2019-03-18T22:35:20.135Z,100584.94
2019-03-18T22:37:49.522Z,100587.48
2019-03-18T22:40:19.154Z,100588.76
2019-03-18T22:42:48.528Z,100589.61
2019-03-18T22:45:18.509Z,100592.55
2019-03-18T22:47:47.874Z,100593.08
2019-03-18T22:50:20.794Z,100596.37
2019-03-18T22:52:50.190Z,100599.52
2019-03-18T22:55:19.817Z,100600.20
2019-03-18T22:57:49.444Z,100599.90
2019-03-18T23:00:25.791Z,100604.23
2019-03-18T23:02:55.480Z,100607.28
2019-03-18T23:05:25.098Z,100606.30
2019-03-18T23:07:54.469Z,100607.88
2019-03-18T23:10:23.836Z,100610.52
2019-03-18T23:12:53.201Z,100610.13
2019-03-18T23:15:22.804Z,100610.00
2019-03-18T23:17:52.519Z,100609.48
2019-03-18T23:20:21.882Z,100609.28
2019-03-18T23:22:51.264Z,100613.95
2019-03-18T23:25:20.686Z,100612.53
2019-03-18T23:27:50.068Z,100607.52
2019-03-18T23:30:19.432Z,100604.33
2019-03-18T23:32:49.271Z,100603.59
2019-03-18T23:35:18.642Z,100598.48
2019-03-18T23:37:48.024Z,100596.86
2019-03-18T23:40:17.377Z,100603.07
2019-03-18T23:42:46.765Z,100603.81
2019-03-18T23:45:16.453Z,100611.75
2019-03-18T23:47:45.832Z,100607.67
2019-03-18T23:50:17.356Z,100614.78
2019-03-18T23:52:46.676Z,100616.70
2019-03-18T23:55:19.623Z,100621.46
2019-03-18T23:57:47.140Z,100621.66
